Hauptseite
METAR-TAF:

METAR-TAF

Flughäfen :

Flughafen Inverness

Inverness, Schottland

Breite: 57-32N, Länge: 004-03W, Höhe: 9 m

Beobachtung

Neuester Wetterbericht von vor 23 Minuten, um 07:50 UTC
Wind 2 kt aus unterschiedlichen Richtungen
Temperatur 7°C
Luftfeuchtigkeit 87%
Luftdruck 1027 hPa
Sichtweite 10 km oder mehr
Leicht bewölkt in der Höhe von 3500 ft
Aufgelockert bewölkt in der Höhe von 4500 ft

METAR: EGPE 180750Z VRB02KT 9999 FEW035 SCT045 07/05 Q1027

Zeit: 09:13 (08:13 UTC)

Prognose

Neuester Wetterbericht von vor 3 Stunden und 16 Minuten, um 04:57 UTC
Gültige Prognose vom 18 um 06 UTC bis 18 um 15 UTC
Wind 7 kt aus Südwest
Sichtweite 10 km oder mehr
Leicht bewölkt in der Höhe von 4500 ft

TAF: EGPE 180457Z 1806/1815 22007KT 9999 FEW045

Wetterbeobachtungen und Prognosen von mehr als 4000 Flughäfen (METAR und TAF Bericht).

Die verfügbaren Stationen werden durch gelbe und rote Markierungen auf der Karte dargestellt.

Führen Sie die Maus auf sie, um den Namen der Station zu sehen.

Darauf klicken, um die Beobachtung von Wetterbeobachtungen und Prognosen zu sehen.

Um die Karte zu ändern : klicken Sie auf den grünen Tasten mit einem schwarzen Kreuz Zum Vergrößern, auf den grünen Button mit einem Gedankenstrich zu verkleinern, oder auf die grünen Pfeile für benachbarte Karten.


METAR-TAF: